Time;durP1;ratioP1;P1;durP2;ratioP2;P2;SDS_P1;SDS_P2;PMS_P1;PMS_P2;Temp;Humidity;BMP_temperature;BMP_pressure;BME280_temperature;BME280_humidity;BME280_pressure;Samples;Min_cycle;Max_cycle;Signal;HPM_P1;HPM_P2
2022/02/26 00:01:50;;;;;;;0.20;0.17;;;1.90;89.40;;;;;;5115328;28;20097;-75
2022/02/26 00:04:17;;;;;;;0.65;0.30;;;1.90;89.50;;;;;;5114686;28;20152;-75
2022/02/26 00:06:42;;;;;;;0.47;0.20;;;1.80;89.90;;;;;;5079744;28;20052;-75
2022/02/26 00:09:09;;;;;;;0.20;0.20;;;1.80;89.60;;;;;;5062853;28;20554;-75
2022/02/26 00:11:35;;;;;;;0.82;0.32;;;1.80;89.60;;;;;;5096243;28;20043;-75
2022/02/26 00:14:01;;;;;;;0.50;0.10;;;1.80;89.60;;;;;;5096285;28;20047;-76
2022/02/26 00:16:27;;;;;;;0.25;0.17;;;1.70;89.60;;;;;;5096753;28;20069;-75
2022/02/26 00:18:52;;;;;;;0.30;0.17;;;1.70;89.60;;;;;;5114869;28;20442;-75
2022/02/26 00:21:18;;;;;;;0.22;0.20;;;1.70;89.60;;;;;;5079351;28;20035;-75
2022/02/26 00:23:44;;;;;;;0.30;0.20;;;1.70;89.60;;;;;;5115026;28;20039;-75
2022/02/26 00:26:11;;;;;;;0.50;0.30;;;1.70;89.70;;;;;;5114611;28;20051;-75
2022/02/26 00:28:37;;;;;;;0.57;0.17;;;1.70;89.70;;;;;;5111534;28;20129;-75
2022/02/26 00:31:03;;;;;;;0.38;0.30;;;1.70;89.80;;;;;;5114759;28;20028;-76
2022/02/26 00:33:30;;;;;;;0.40;0.20;;;1.60;89.80;;;;;;5079160;28;20055;-75
2022/02/26 00:35:59;;;;;;;0.28;0.28;;;1.60;89.80;;;;;;5114631;28;20044;-75
2022/02/26 00:38:26;;;;;;;0.52;0.30;;;1.50;89.80;;;;;;5063330;28;20047;-75
2022/02/26 00:40:52;;;;;;;0.10;0.10;;;1.50;89.80;;;;;;5095799;28;20039;-75
2022/02/26 00:43:19;;;;;;;1.05;0.40;;;1.40;89.80;;;;;;5095922;28;20634;-75
2022/02/26 00:45:44;;;;;;;0.75;0.20;;;1.40;89.70;;;;;;5096415;28;20122;-75
2022/02/26 00:48:10;;;;;;;0.10;0.10;;;1.40;89.80;;;;;;5095971;28;20181;-75
2022/02/26 00:50:36;;;;;;;0.10;0.10;;;1.40;89.90;;;;;;5113909;28;20035;-75
2022/02/26 00:53:02;;;;;;;0.38;0.25;;;1.40;90.00;;;;;;5078735;28;20039;-76
2022/02/26 00:55:27;;;;;;;0.22;0.17;;;1.40;90.00;;;;;;5114368;28;20111;-75
2022/02/26 00:57:53;;;;;;;0.25;0.20;;;1.40;90.00;;;;;;5113937;28;20096;-75
2022/02/26 01:00:19;;;;;;;0.15;0.15;;;1.30;90.00;;;;;;5095544;28;20043;-75
2022/02/26 01:02:46;;;;;;;0.32;0.32;;;1.30;90.00;;;;;;5095541;28;20036;-75
2022/02/26 01:05:12;;;;;;;0.88;0.40;;;1.30;90.00;;;;;;5113630;28;20056;-75
2022/02/26 01:07:38;;;;;;;0.52;0.10;;;1.20;90.00;;;;;;5079371;28;20035;-75
2022/02/26 01:10:06;;;;;;;0.75;0.32;;;1.20;90.00;;;;;;5095653;28;20040;-75
2022/02/26 01:12:32;;;;;;;0.25;0.20;;;1.20;90.00;;;;;;5078929;28;20069;-75
2022/02/26 01:14:59;;;;;;;0.40;0.20;;;1.20;90.00;;;;;;5095384;28;20516;-74
2022/02/26 01:17:25;;;;;;;0.38;0.30;;;1.20;90.00;;;;;;5113638;28;20469;-74
2022/02/26 01:19:51;;;;;;;0.63;0.30;;;1.20;90.00;;;;;;5079014;28;20051;-73
2022/02/26 01:22:17;;;;;;;0.43;0.20;;;1.20;90.00;;;;;;5095500;28;20124;-74
2022/02/26 01:24:43;;;;;;;0.35;0.20;;;1.10;90.00;;;;;;5114016;28;20035;-74
2022/02/26 01:27:08;;;;;;;0.10;0.10;;;1.00;90.00;;;;;;5061727;28;20047;-74
2022/02/26 01:29:35;;;;;;;0.52;0.22;;;1.00;90.00;;;;;;5095460;28;20126;-74
2022/02/26 01:32:01;;;;;;;0.57;0.20;;;1.00;90.10;;;;;;5113939;28;20044;-74
2022/02/26 01:34:27;;;;;;;0.20;0.20;;;1.00;90.10;;;;;;5094958;28;20047;-74
2022/02/26 01:36:52;;;;;;;0.10;0.10;;;0.90;90.10;;;;;;5113196;28;20050;-74
2022/02/26 01:39:24;;;;;;;0.10;0.10;;;0.90;90.10;;;;;;5095049;28;20048;-74
2022/02/26 01:41:52;;;;;;;0.30;0.30;;;0.80;90.10;;;;;;5113126;28;20088;-74
2022/02/26 01:44:19;;;;;;;0.13;0.13;;;0.90;90.10;;;;;;5113684;28;20508;-74
2022/02/26 01:46:45;;;;;;;0.77;0.30;;;0.80;90.10;;;;;;5094592;28;20075;-74
2022/02/26 01:49:11;;;;;;;0.35;0.20;;;0.80;90.10;;;;;;5061300;28;20055;-75
2022/02/26 01:51:37;;;;;;;0.52;0.30;;;0.80;90.10;;;;;;5077843;28;20039;-74
2022/02/26 01:54:03;;;;;;;0.70;0.40;;;0.70;90.10;;;;;;5094790;28;20062;-74
2022/02/26 01:56:29;;;;;;;0.73;0.30;;;0.70;90.20;;;;;;5113307;28;20040;-75
2022/02/26 01:58:55;;;;;;;0.55;0.28;;;0.70;90.10;;;;;;5095201;28;20039;-75
2022/02/26 02:01:21;;;;;;;0.17;0.10;;;0.60;90.20;;;;;;5094750;28;20134;-75
2022/02/26 02:03:47;;;;;;;0.10;0.10;;;0.60;90.20;;;;;;5113187;28;20131;-75
2022/02/26 02:06:13;;;;;;;0.35;0.25;;;0.60;90.20;;;;;;5094493;28;20040;-75
2022/02/26 02:08:41;;;;;;;0.98;0.10;;;0.60;90.20;;;;;;5113363;28;20062;-75
2022/02/26 02:11:08;;;;;;;0.20;0.10;;;0.60;90.20;;;;;;5077476;28;20046;-75
2022/02/26 02:13:34;;;;;;;0.75;0.20;;;0.60;90.20;;;;;;5112742;28;20520;-75
2022/02/26 02:16:00;;;;;;;0.10;0.10;;;0.50;90.20;;;;;;5112938;28;20039;-75
2022/02/26 02:18:26;;;;;;;0.22;0.17;;;0.60;90.20;;;;;;5094278;28;20207;-75
2022/02/26 02:20:52;;;;;;;1.48;0.40;;;0.40;90.10;;;;;;5077551;28;20528;-75
2022/02/26 02:23:18;;;;;;;1.20;0.30;;;0.50;90.10;;;;;;5112486;28;20039;-75
2022/02/26 02:25:45;;;;;;;0.45;0.20;;;0.50;90.20;;;;;;5077430;28;20054;-75
2022/02/26 02:28:11;;;;;;;0.80;0.20;;;0.50;90.20;;;;;;5094441;28;20459;-75
2022/02/26 02:30:38;;;;;;;0.80;0.20;;;0.50;90.20;;;;;;5094156;28;20047;-75
2022/02/26 02:33:05;;;;;;;0.20;0.20;;;0.50;90.10;;;;;;5094384;28;20126;-75
2022/02/26 02:35:34;;;;;;;0.20;0.20;;;0.50;90.10;;;;;;5060471;28;20050;-75
2022/02/26 02:38:05;;;;;;;0.32;0.20;;;0.50;90.10;;;;;;5094106;28;20051;-75
2022/02/26 02:40:31;;;;;;;0.33;0.10;;;0.50;90.10;;;;;;5077150;28;20096;-75
2022/02/26 02:42:57;;;;;;;0.20;0.20;;;0.40;90.10;;;;;;5112225;28;20763;-75
2022/02/26 02:45:23;;;;;;;0.55;0.20;;;0.40;90.10;;;;;;5112409;28;20119;-75
2022/02/26 02:47:49;;;;;;;0.77;0.47;;;0.40;90.10;;;;;;5077136;28;20031;-75
2022/02/26 02:50:16;;;;;;;0.28;0.22;;;0.30;90.10;;;;;;5094043;28;20031;-75
2022/02/26 02:52:43;;;;;;;1.45;0.13;;;0.30;90.20;;;;;;5113951;28;20043;-75
2022/02/26 02:55:14;;;;;;;0.10;0.10;;;0.20;90.20;;;;;;5080722;28;20043;-75
2022/02/26 02:57:42;;;;;;;0.10;0.10;;;0.30;90.20;;;;;;5114499;28;20445;-75
2022/02/26 03:00:08;;;;;;;0.30;0.20;;;0.30;90.20;;;;;;5098073;28;20040;-75
2022/02/26 03:02:34;;;;;;;0.55;0.30;;;0.20;90.20;;;;;;5097306;28;20089;-75
2022/02/26 03:05:00;;;;;;;1.10;0.40;;;0.20;90.20;;;;;;5097757;28;20042;-75
2022/02/26 03:07:26;;;;;;;0.43;0.22;;;0.20;90.30;;;;;;5097222;28;20401;-75
2022/02/26 03:09:52;;;;;;;0.52;0.17;;;0.10;90.20;;;;;;5116243;28;20043;-76
2022/02/26 03:12:18;;;;;;;0.20;0.20;;;0.20;90.30;;;;;;5116183;28;20044;-75
2022/02/26 03:14:43;;;;;;;0.32;0.20;;;0.20;90.30;;;;;;5115503;28;20035;-75
2022/02/26 03:17:10;;;;;;;0.32;0.20;;;0.20;90.30;;;;;;5115683;28;20504;-75
2022/02/26 03:19:36;;;;;;;0.63;0.30;;;0.20;90.20;;;;;;5080620;28;20047;-75
2022/02/26 03:22:03;;;;;;;0.17;0.17;;;0.20;90.20;;;;;;5097342;28;20434;-75
2022/02/26 03:24:29;;;;;;;0.55;0.10;;;0.20;90.20;;;;;;5097452;28;20035;-75
2022/02/26 03:26:57;;;;;;;0.40;0.20;;;0.10;90.20;;;;;;5095198;28;20044;-75
2022/02/26 03:29:25;;;;;;;0.20;0.20;;;0.20;90.20;;;;;;5080448;28;20071;-75
2022/02/26 03:31:50;;;;;;;0.30;0.20;;;0.10;90.20;;;;;;5097011;28;20519;-75
2022/02/26 03:34:16;;;;;;;0.20;0.20;;;0.10;90.30;;;;;;5115140;28;20044;-75
2022/02/26 03:36:42;;;;;;;0.30;0.20;;;0.00;90.20;;;;;;5096883;28;20042;-75
2022/02/26 03:39:08;;;;;;;0.50;0.20;;;0.00;90.20;;;;;;5096933;28;20088;-75
2022/02/26 03:41:34;;;;;;;0.20;0.20;;;0.00;90.30;;;;;;5096904;28;20031;-75
2022/02/26 03:44:00;;;;;;;0.40;0.40;;;0.00;90.30;;;;;;5096917;28;20043;-75
2022/02/26 03:46:25;;;;;;;0.30;0.00;;;0.00;90.30;;;;;;5096903;28;20127;-75
2022/02/26 03:48:51;;;;;;;0.38;0.35;;;0.00;90.30;;;;;;5079787;28;20036;-75
2022/02/26 03:51:17;;;;;;;0.43;0.20;;;0.00;90.30;;;;;;5096699;28;20044;-75
2022/02/26 03:53:43;;;;;;;1.45;0.32;;;-0.10;90.30;;;;;;5114988;28;20063;-75
2022/02/26 03:56:09;;;;;;;0.30;0.28;;;-0.10;90.30;;;;;;5115508;28;20133;-75
2022/02/26 03:58:34;;;;;;;0.30;0.20;;;-0.10;90.30;;;;;;5114725;28;20040;-75
2022/02/26 04:01:00;;;;;;;0.68;0.22;;;-0.10;90.30;;;;;;5115444;28;20040;-75
2022/02/26 04:03:26;;;;;;;0.15;0.15;;;-0.10;90.30;;;;;;5096435;28;20043;-75
2022/02/26 04:05:52;;;;;;;0.20;0.20;;;-0.10;90.30;;;;;;5097074;28;20047;-75
2022/02/26 04:08:17;;;;;;;0.65;0.20;;;-0.10;90.30;;;;;;5114814;28;20036;-75
2022/02/26 04:10:43;;;;;;;0.75;0.20;;;-0.10;90.30;;;;;;5079400;28;20173;-75
2022/02/26 04:13:10;;;;;;;0.30;0.20;;;0.00;90.30;;;;;;5096146;28;20058;-75
2022/02/26 04:15:36;;;;;;;0.20;0.20;;;-0.10;90.20;;;;;;5096095;28;20489;-75
2022/02/26 04:18:02;;;;;;;0.10;0.10;;;-0.10;90.30;;;;;;5096194;28;20046;-75
2022/02/26 04:20:27;;;;;;;0.30;0.30;;;-0.10;90.30;;;;;;5114940;28;20043;-76
2022/02/26 04:22:53;;;;;;;0.30;0.20;;;0.00;90.30;;;;;;5114523;28;20035;-76
2022/02/26 04:25:19;;;;;;;0.40;0.20;;;-0.10;90.30;;;;;;5114373;28;20493;-75
2022/02/26 04:27:45;;;;;;;0.38;0.20;;;-0.10;90.30;;;;;;5079196;28;20097;-76
2022/02/26 04:30:11;;;;;;;0.32;0.13;;;0.00;90.30;;;;;;5114768;28;20048;-76
2022/02/26 04:32:38;;;;;;;0.17;0.17;;;-0.10;90.30;;;;;;5079223;28;20043;-76
2022/02/26 04:35:05;;;;;;;0.30;0.20;;;0.00;90.30;;;;;;5096420;28;20511;-75
2022/02/26 04:37:31;;;;;;;0.20;0.20;;;-0.10;90.20;;;;;;5114535;28;20126;-75
2022/02/26 04:39:58;;;;;;;0.22;0.10;;;0.00;90.30;;;;;;5114436;28;20082;-75
2022/02/26 04:42:25;;;;;;;0.30;0.20;;;0.00;90.20;;;;;;5096235;28;20054;-75
2022/02/26 04:44:50;;;;;;;0.22;0.20;;;0.00;90.20;;;;;;5079066;28;20097;-75
2022/02/26 04:47:16;;;;;;;0.70;0.30;;;0.00;90.20;;;;;;5078867;28;20457;-75
2022/02/26 04:49:42;;;;;;;0.10;0.10;;;0.00;90.20;;;;;;5114094;28;20035;-75
2022/02/26 04:52:08;;;;;;;2.78;0.30;;;0.00;90.20;;;;;;5095882;28;20084;-75
2022/02/26 04:54:34;;;;;;;0.10;0.10;;;0.00;90.20;;;;;;5079029;28;20458;-75
2022/02/26 04:57:00;;;;;;;0.98;0.13;;;0.00;90.20;;;;;;5113871;28;20059;-75
2022/02/26 04:59:26;;;;;;;0.28;0.25;;;0.00;90.20;;;;;;5078456;28;20039;-75
2022/02/26 05:01:52;;;;;;;0.10;0.10;;;0.00;90.20;;;;;;5095431;28;20511;-75
2022/02/26 05:04:18;;;;;;;0.47;0.20;;;0.00;90.30;;;;;;5095709;28;20134;-75
2022/02/26 05:06:43;;;;;;;0.35;0.20;;;-0.10;90.30;;;;;;5078654;28;20135;-75
2022/02/26 05:09:09;;;;;;;0.10;0.10;;;-0.10;90.30;;;;;;5095698;28;20104;-75
2022/02/26 05:11:35;;;;;;;0.30;0.25;;;-0.10;90.30;;;;;;5079108;28;20089;-75
2022/02/26 05:14:01;;;;;;;0.90;0.38;;;-0.10;90.30;;;;;;5114339;28;20066;-75
2022/02/26 05:16:27;;;;;;;0.30;0.22;;;-0.10;90.30;;;;;;5113216;28;20064;-75
2022/02/26 05:18:52;;;;;;;0.20;0.20;;;-0.10;90.30;;;;;;5095890;28;20047;-75
2022/02/26 05:21:18;;;;;;;0.65;0.20;;;-0.20;90.30;;;;;;5078862;28;20100;-75
2022/02/26 05:23:44;;;;;;;0.52;0.32;;;-0.20;90.30;;;;;;5114306;28;20380;-75
2022/02/26 05:26:12;;;;;;;0.20;0.20;;;-0.10;90.40;;;;;;5095420;28;20122;-75
2022/02/26 05:28:38;;;;;;;0.17;0.17;;;-0.10;90.40;;;;;;5112257;28;20035;-75
2022/02/26 05:31:05;;;;;;;0.35;0.30;;;-0.10;90.40;;;;;;5095486;28;20035;-75
2022/02/26 05:33:31;;;;;;;0.20;0.20;;;-0.10;90.40;;;;;;5113978;28;20408;-75
2022/02/26 05:35:57;;;;;;;0.20;0.20;;;-0.10;90.40;;;;;;5095376;28;20040;-75
2022/02/26 05:38:23;;;;;;;0.63;0.20;;;-0.10;90.40;;;;;;5113567;28;20061;-75
2022/02/26 05:40:49;;;;;;;0.38;0.25;;;-0.10;90.40;;;;;;5114028;28;20446;-75
2022/02/26 05:43:14;;;;;;;0.77;0.28;;;-0.10;90.40;;;;;;5078407;28;20574;-75
2022/02/26 05:45:40;;;;;;;0.68;0.30;;;-0.10;90.40;;;;;;5078269;28;20040;-75
2022/02/26 05:48:07;;;;;;;0.32;0.32;;;-0.10;90.40;;;;;;5113419;28;20078;-75
2022/02/26 05:50:32;;;;;;;0.20;0.20;;;-0.10;90.30;;;;;;5095419;28;20027;-75
2022/02/26 05:52:58;;;;;;;0.30;0.30;;;-0.10;90.30;;;;;;5113859;28;20028;-74
2022/02/26 05:55:24;;;;;;;0.85;0.38;;;-0.10;90.30;;;;;;5113287;28;20084;-75
2022/02/26 05:57:50;;;;;;;0.52;0.20;;;0.00;90.30;;;;;;5113297;28;20089;-76
2022/02/26 06:00:16;;;;;;;0.43;0.30;;;0.00;90.30;;;;;;5095351;28;20038;-75
2022/02/26 06:02:42;;;;;;;0.40;0.35;;;-0.10;90.30;;;;;;5095058;28;20048;-75
2022/02/26 06:05:09;;;;;;;0.30;0.30;;;-0.10;90.30;;;;;;5113282;28;20498;-75
2022/02/26 06:07:35;;;;;;;0.22;0.22;;;-0.10;90.30;;;;;;5095602;28;20040;-76
2022/02/26 06:10:00;;;;;;;0.43;0.40;;;-0.10;90.30;;;;;;5094977;28;20177;-75
2022/02/26 06:12:26;;;;;;;0.73;0.40;;;0.00;90.40;;;;;;5095243;28;20097;-75
2022/02/26 06:14:52;;;;;;;0.25;0.10;;;-0.10;90.30;;;;;;5113383;28;20039;-76
2022/02/26 06:17:18;;;;;;;0.98;0.30;;;-0.10;90.30;;;;;;5094772;28;20512;-76
2022/02/26 06:19:44;;;;;;;0.28;0.28;;;-0.10;90.40;;;;;;5061568;28;20378;-74
2022/02/26 06:22:10;;;;;;;0.15;0.15;;;-0.10;90.40;;;;;;5112895;28;20047;-76
2022/02/26 06:24:35;;;;;;;0.70;0.30;;;-0.10;90.40;;;;;;5077795;28;20039;-75
2022/02/26 06:27:02;;;;;;;0.20;0.20;;;-0.10;90.40;;;;;;5094093;28;20035;-76
2022/02/26 06:29:27;;;;;;;0.20;0.20;;;-0.10;90.40;;;;;;5112741;28;20047;-75
2022/02/26 06:31:53;;;;;;;0.20;0.20;;;0.10;90.40;;;;;;5112757;28;20032;-75
2022/02/26 06:34:20;;;;;;;0.22;0.20;;;0.00;90.30;;;;;;5060831;28;20553;-75
2022/02/26 06:36:46;;;;;;;0.20;0.20;;;0.00;90.30;;;;;;5078014;28;20035;-75
2022/02/26 06:39:12;;;;;;;0.17;0.17;;;0.00;90.30;;;;;;5094457;28;20405;-76
2022/02/26 06:41:38;;;;;;;0.20;0.13;;;0.10;90.30;;;;;;5095047;28;20043;-75
2022/02/26 06:44:04;;;;;;;0.20;0.10;;;0.10;90.30;;;;;;5094864;28;20473;-75
2022/02/26 06:46:30;;;;;;;0.10;0.10;;;0.10;90.30;;;;;;5094384;28;20047;-75
2022/02/26 06:48:56;;;;;;;0.30;0.30;;;0.10;90.30;;;;;;5077703;28;20122;-75
2022/02/26 06:51:22;;;;;;;0.35;0.35;;;0.20;90.30;;;;;;5094399;28;20051;-76
2022/02/26 06:53:47;;;;;;;0.20;0.20;;;0.20;90.30;;;;;;5112603;28;20035;-76
2022/02/26 06:56:13;;;;;;;0.08;0.08;;;0.20;90.30;;;;;;5077572;28;20043;-76
2022/02/26 06:58:39;;;;;;;0.30;0.20;;;0.20;90.30;;;;;;5112822;28;20055;-75
2022/02/26 07:01:05;;;;;;;0.20;0.20;;;0.20;90.30;;;;;;5077498;28;20043;-76
2022/02/26 07:03:31;;;;;;;0.22;0.15;;;0.20;90.30;;;;;;5094297;28;20047;-75
2022/02/26 07:05:56;;;;;;;0.10;0.10;;;0.30;90.30;;;;;;5112276;28;20043;-75
2022/02/26 07:08:22;;;;;;;0.30;0.20;;;0.30;90.30;;;;;;5112424;28;20032;-75
2022/02/26 07:10:48;;;;;;;0.17;0.17;;;0.30;90.30;;;;;;5112253;28;20043;-76
2022/02/26 07:13:14;;;;;;;0.13;0.13;;;0.30;90.20;;;;;;5112719;28;20377;-75
2022/02/26 07:15:40;;;;;;;0.20;0.20;;;0.30;90.20;;;;;;5094043;28;20039;-75
2022/02/26 07:18:09;;;;;;;0.20;0.20;;;0.40;90.30;;;;;;5076894;28;20125;-76
2022/02/26 07:20:36;;;;;;;0.52;0.38;;;0.40;90.30;;;;;;5090656;28;20073;-75
2022/02/26 07:23:01;;;;;;;0.20;0.20;;;0.50;90.30;;;;;;5112382;28;20046;-76
2022/02/26 07:25:27;;;;;;;0.17;0.17;;;0.50;90.30;;;;;;5093631;28;20518;-76
2022/02/26 07:27:53;;;;;;;0.20;0.20;;;0.50;90.30;;;;;;5112259;28;20116;-75
2022/02/26 07:30:19;;;;;;;0.32;0.22;;;0.50;90.20;;;;;;5060225;28;20044;-75
2022/02/26 07:32:45;;;;;;;0.20;0.20;;;0.50;90.30;;;;;;5093618;28;20109;-76
2022/02/26 07:35:11;;;;;;;0.30;0.30;;;0.50;90.30;;;;;;5112156;28;20046;-76
2022/02/26 07:37:37;;;;;;;0.22;0.22;;;0.60;90.30;;;;;;5112308;28;20501;-76
2022/02/26 07:40:04;;;;;;;0.20;0.20;;;0.60;90.30;;;;;;5097192;28;20182;-76
2022/02/26 07:42:30;;;;;;;0.40;0.30;;;0.70;90.30;;;;;;5097391;28;20093;-76
2022/02/26 07:44:56;;;;;;;0.50;0.30;;;0.70;90.30;;;;;;5097206;28;20489;-76
2022/02/26 07:47:22;;;;;;;0.30;0.30;;;0.70;90.20;;;;;;5115695;28;20039;-76
2022/02/26 07:49:49;;;;;;;0.30;0.30;;;0.80;90.30;;;;;;5097471;28;20127;-75
2022/02/26 07:52:15;;;;;;;0.22;0.22;;;0.80;90.20;;;;;;5097540;28;20046;-76
2022/02/26 07:54:41;;;;;;;0.20;0.20;;;0.90;90.20;;;;;;5097545;28;20043;-76
2022/02/26 07:57:07;;;;;;;0.30;0.30;;;0.90;90.20;;;;;;5115187;28;20096;-76
2022/02/26 07:59:33;;;;;;;0.50;0.38;;;1.00;90.20;;;;;;5096964;28;20028;-76
2022/02/26 08:01:59;;;;;;;0.30;0.30;;;1.00;90.10;;;;;;5096869;28;20040;-76
2022/02/26 08:04:27;;;;;;;0.30;0.30;;;1.10;90.00;;;;;;5096887;28;20039;-76
2022/02/26 08:06:53;;;;;;;0.40;0.40;;;1.10;90.00;;;;;;5096605;28;20580;-76
2022/02/26 08:09:19;;;;;;;0.25;0.25;;;1.20;90.10;;;;;;5115504;28;20101;-77
2022/02/26 08:11:44;;;;;;;0.30;0.30;;;1.20;90.10;;;;;;5096425;28;20040;-77
2022/02/26 08:14:10;;;;;;;0.40;0.30;;;1.30;90.00;;;;;;5063030;28;20047;-76
2022/02/26 08:16:36;;;;;;;0.40;0.40;;;1.30;90.00;;;;;;5079939;28;20047;-76
2022/02/26 08:19:03;;;;;;;1.13;0.57;;;1.30;90.10;;;;;;5114802;28;20116;-76
2022/02/26 08:21:33;;;;;;;0.30;0.30;;;1.40;90.10;;;;;;5096343;28;20424;-76
2022/02/26 08:23:59;;;;;;;0.60;0.60;;;1.40;90.10;;;;;;5115073;28;20122;-77
2022/02/26 08:26:25;;;;;;;0.50;0.30;;;1.50;90.10;;;;;;5096259;28;20142;-77
2022/02/26 08:28:51;;;;;;;0.30;0.30;;;1.60;90.10;;;;;;5114417;28;20092;-77
2022/02/26 08:31:17;;;;;;;0.30;0.30;;;1.70;90.00;;;;;;5096681;28;20092;-77
2022/02/26 08:33:43;;;;;;;0.40;0.40;;;1.80;89.90;;;;;;5079392;28;20046;-76
2022/02/26 08:36:08;;;;;;;0.77;0.52;;;1.80;89.90;;;;;;5079778;28;20048;-75
2022/02/26 08:38:34;;;;;;;0.30;0.30;;;1.80;89.70;;;;;;5096718;28;20089;-75
2022/02/26 08:41:00;;;;;;;0.30;0.30;;;1.90;89.70;;;;;;5114985;28;20548;-75
2022/02/26 08:43:27;;;;;;;0.50;0.50;;;1.90;89.80;;;;;;5079370;28;20042;-75
2022/02/26 08:45:53;;;;;;;0.60;0.40;;;2.00;89.90;;;;;;5079621;28;20071;-75
2022/02/26 08:48:19;;;;;;;0.40;0.40;;;2.10;89.80;;;;;;5096577;28;20067;-76
2022/02/26 08:50:44;;;;;;;0.70;0.63;;;2.20;89.60;;;;;;5113775;28;20035;-76
2022/02/26 08:53:10;;;;;;;0.50;0.50;;;2.20;89.70;;;;;;5096159;28;20489;-76
2022/02/26 08:55:37;;;;;;;0.60;0.60;;;2.20;89.70;;;;;;5114298;28;20488;-76
2022/02/26 08:58:03;;;;;;;0.40;0.40;;;2.30;89.80;;;;;;5096735;28;20046;-76
2022/02/26 09:00:28;;;;;;;0.50;0.50;;;2.40;89.60;;;;;;5114676;28;20039;-76
2022/02/26 09:02:55;;;;;;;0.65;0.55;;;2.40;90.10;;;;;;5114134;28;20048;-76
2022/02/26 09:05:20;;;;;;;0.50;0.50;;;2.40;89.70;;;;;;5113992;28;20138;-76
2022/02/26 09:07:46;;;;;;;0.65;0.52;;;2.50;89.60;;;;;;5095886;28;20122;-76
2022/02/26 09:10:13;;;;;;;0.50;0.50;;;2.50;89.60;;;;;;5096424;28;20032;-76
2022/02/26 09:12:39;;;;;;;0.47;0.47;;;2.50;89.60;;;;;;5095984;28;20087;-77
2022/02/26 09:15:06;;;;;;;0.50;0.47;;;2.60;89.70;;;;;;5078807;28;20032;-76
2022/02/26 09:17:32;;;;;;;1.05;0.63;;;2.70;89.60;;;;;;5062262;28;20485;-75
2022/02/26 09:19:58;;;;;;;1.05;0.70;;;2.80;89.40;;;;;;5079478;28;20481;-76
2022/02/26 09:22:23;;;;;;;1.23;0.60;;;2.80;89.30;;;;;;5114533;28;20096;-74
2022/02/26 09:24:49;;;;;;;1.05;0.80;;;2.90;89.40;;;;;;5079399;28;20485;-74
2022/02/26 09:27:15;;;;;;;0.75;0.70;;;2.90;89.40;;;;;;5095524;28;20043;-75
2022/02/26 09:29:41;;;;;;;0.80;0.65;;;3.00;89.30;;;;;;5113647;28;20126;-74
2022/02/26 09:32:07;;;;;;;1.23;0.98;;;3.00;89.40;;;;;;5095563;28;20031;-74
2022/02/26 09:34:34;;;;;;;0.88;0.68;;;3.10;89.50;;;;;;5113775;28;20036;-75
2022/02/26 09:36:59;;;;;;;1.30;0.90;;;3.30;89.50;;;;;;5095944;28;20047;-74
2022/02/26 09:39:25;;;;;;;1.08;0.70;;;3.30;89.20;;;;;;5113886;28;20188;-75
2022/02/26 09:41:52;;;;;;;1.75;1.00;;;3.40;89.10;;;;;;5078233;28;20042;-75
2022/02/26 09:44:20;;;;;;;1.85;1.05;;;3.50;89.30;;;;;;5078473;28;20520;-75
2022/02/26 09:46:47;;;;;;;1.90;1.40;;;3.50;89.20;;;;;;5095212;28;20497;-75
2022/02/26 09:49:13;;;;;;;0.82;0.73;;;3.60;89.20;;;;;;5113927;28;20847;-76
2022/02/26 09:51:41;;;;;;;0.90;0.80;;;3.70;89.20;;;;;;5113393;28;20038;-75
2022/02/26 09:54:07;;;;;;;2.40;1.50;;;3.80;89.20;;;;;;5113440;28;20035;-75
2022/02/26 09:56:33;;;;;;;3.72;1.73;;;3.90;89.10;;;;;;5113465;28;20043;-75
2022/02/26 09:58:59;;;;;;;2.33;1.38;;;4.00;89.00;;;;;;5095050;28;20135;-75
2022/02/26 10:01:25;;;;;;;1.42;0.98;;;4.10;88.90;;;;;;5113073;28;20079;-77
2022/02/26 10:04:04;;;;;;;1.60;1.15;;;4.10;88.80;;;;;;5113785;28;20039;-75
2022/02/26 10:06:30;;;;;;;1.83;1.10;;;4.20;89.00;;;;;;5097117;28;20044;-76
2022/02/26 10:08:57;;;;;;;1.20;1.10;;;4.30;89.10;;;;;;5113702;28;20127;-77
2022/02/26 10:11:28;;;;;;;1.70;1.10;;;4.40;89.10;;;;;;5094775;28;20084;-76
2022/02/26 10:14:02;;;;;;;1.45;0.82;;;4.50;89.00;;;;;;5093234;28;20035;-76
2022/02/26 10:17:00;;;;;;;1.27;0.80;;;4.60;89.00;;;;;;5093988;28;20149;-76
2022/02/26 10:19:29;;;;;;;1.83;1.10;;;4.70;89.00;;;;;;5111493;28;20050;-75
2022/02/26 10:21:57;;;;;;;2.08;1.10;;;4.90;88.80;;;;;;5113164;28;20047;-75
2022/02/26 10:24:24;;;;;;;1.58;1.05;;;5.00;88.70;;;;;;5094512;28;20405;-75
2022/02/26 10:26:52;;;;;;;1.05;0.95;;;5.10;88.60;;;;;;5112655;28;20070;-75
2022/02/26 10:29:22;;;;;;;1.60;1.15;;;5.20;88.60;;;;;;5094538;28;20044;-75
2022/02/26 10:31:53;;;;;;;2.20;1.10;;;5.30;88.50;;;;;;5078336;28;20050;-73
2022/02/26 10:34:37;;;;;;;1.90;1.05;;;5.40;88.40;;;;;;5094516;28;20512;-73
2022/02/26 10:37:06;;;;;;;0.90;0.60;;;5.50;88.30;;;;;;5112717;28;20047;-73
2022/02/26 10:39:41;;;;;;;1.25;0.80;;;5.60;88.10;;;;;;5061172;28;20079;-75
2022/02/26 10:42:09;;;;;;;3.60;0.90;;;5.70;88.10;;;;;;5112435;28;20048;-73
2022/02/26 10:44:36;;;;;;;1.63;0.80;;;5.70;87.80;;;;;;5094310;28;20051;-73
2022/02/26 10:47:13;;;;;;;1.55;0.77;;;5.90;87.90;;;;;;5112382;28;20485;-73
2022/02/26 10:49:47;;;;;;;2.85;0.88;;;5.90;87.70;;;;;;5094301;28;20039;-73
2022/02/26 10:52:16;;;;;;;0.73;0.38;;;6.10;87.60;;;;;;5094505;28;20097;-73
2022/02/26 10:54:49;;;;;;;0.73;0.50;;;6.10;87.40;;;;;;5113090;28;20054;-74
2022/02/26 10:57:16;;;;;;;1.35;0.68;;;6.30;87.40;;;;;;5094071;28;20044;-74
2022/02/26 10:59:45;;;;;;;2.13;0.80;;;6.30;87.60;;;;;;5112571;28;20044;-74
2022/02/26 11:02:16;;;;;;;1.77;0.80;;;6.40;87.40;;;;;;5112854;28;20093;-73
2022/02/26 11:04:42;;;;;;;1.38;0.70;;;6.50;87.20;;;;;;5078109;28;20036;-74
2022/02/26 11:07:10;;;;;;;1.25;0.70;;;6.60;87.10;;;;;;5112562;28;20070;-74
2022/02/26 11:09:39;;;;;;;1.23;0.70;;;6.70;87.20;;;;;;5094308;28;20169;-74
2022/02/26 11:12:06;;;;;;;1.63;0.70;;;6.80;87.00;;;;;;5094164;28;20131;-74
2022/02/26 11:14:35;;;;;;;1.50;0.63;;;6.90;86.90;;;;;;5115341;28;20043;-74
2022/02/26 11:17:04;;;;;;;2.22;0.85;;;7.00;86.50;;;;;;5080686;28;20039;-74
2022/02/26 11:19:30;;;;;;;1.60;0.70;;;7.10;86.30;;;;;;5097483;28;20048;-74
2022/02/26 11:21:59;;;;;;;1.98;0.60;;;7.30;86.30;;;;;;5097558;28;20040;-74
2022/02/26 11:24:25;;;;;;;1.10;0.50;;;7.30;86.00;;;;;;5097450;28;20047;-74
2022/02/26 11:26:51;;;;;;;0.50;0.30;;;7.30;85.70;;;;;;5115574;28;20048;-74
2022/02/26 11:29:20;;;;;;;1.88;0.57;;;7.40;85.80;;;;;;5097365;28;20040;-74
2022/02/26 11:32:05;;;;;;;0.70;0.40;;;7.40;85.90;;;;;;5080835;28;20122;-74
2022/02/26 11:34:35;;;;;;;1.67;0.30;;;7.30;85.90;;;;;;5096997;28;20085;-74
2022/02/26 11:37:04;;;;;;;0.28;0.20;;;7.40;86.20;;;;;;5116057;28;20047;-74
2022/02/26 11:39:36;;;;;;;0.20;0.20;;;7.50;86.30;;;;;;5098023;28;20040;-75
2022/02/26 11:42:26;;;;;;;0.45;0.30;;;7.60;86.00;;;;;;5080285;28;20063;-75
2022/02/26 11:45:13;;;;;;;0.43;0.20;;;7.50;85.70;;;;;;5093915;28;20050;-75
2022/02/26 11:47:49;;;;;;;1.23;0.50;;;7.50;85.70;;;;;;5099843;28;20438;-74
2022/02/26 11:50:21;;;;;;;2.03;0.35;;;7.50;85.80;;;;;;5114553;28;20440;-75
2022/02/26 11:52:51;;;;;;;1.50;0.20;;;7.60;85.80;;;;;;5096752;28;20039;-74
2022/02/26 11:55:30;;;;;;;0.98;0.40;;;7.50;85.80;;;;;;5097486;28;20070;-75
2022/02/26 11:57:59;;;;;;;0.30;0.20;;;7.60;86.00;;;;;;5097772;28;20047;-74
2022/02/26 12:00:25;;;;;;;0.82;0.28;;;7.70;86.00;;;;;;5115329;28;20127;-75
2022/02/26 12:03:26;;;;;;;0.70;0.25;;;7.90;85.70;;;;;;5096886;28;20445;-75
2022/02/26 12:05:55;;;;;;;2.17;0.40;;;8.00;85.30;;;;;;5096617;28;20075;-74
2022/02/26 12:08:36;;;;;;;0.93;0.35;;;8.10;84.90;;;;;;5115211;28;20122;-75
2022/02/26 12:11:05;;;;;;;1.73;0.30;;;8.10;84.80;;;;;;5096560;28;20040;-75
2022/02/26 12:13:34;;;;;;;1.17;0.22;;;8.20;84.80;;;;;;5096807;28;20584;-75
2022/02/26 12:16:08;;;;;;;0.85;0.20;;;8.30;84.80;;;;;;5061215;28;20054;-74
2022/02/26 12:18:43;;;;;;;1.45;0.22;;;8.50;84.40;;;;;;5114984;28;20396;-74
2022/02/26 12:21:11;;;;;;;0.32;0.30;;;8.70;83.80;;;;;;5094630;28;20040;-74
2022/02/26 12:23:37;;;;;;;0.93;0.30;;;8.80;83.50;;;;;;5079583;28;20073;-75
2022/02/26 12:26:03;;;;;;;1.98;0.40;;;9.00;83.30;;;;;;5095583;28;20047;-75
2022/02/26 12:28:29;;;;;;;0.60;0.22;;;9.00;83.10;;;;;;5096442;28;20400;-75
2022/02/26 12:31:08;;;;;;;0.52;0.28;;;9.10;83.00;;;;;;5114941;28;20040;-75
2022/02/26 12:33:42;;;;;;;1.17;0.30;;;9.10;82.80;;;;;;5095760;28;20489;-75
2022/02/26 12:36:11;;;;;;;1.67;0.30;;;9.10;82.80;;;;;;5115187;28;20039;-75
2022/02/26 12:38:48;;;;;;;1.10;0.40;;;9.10;83.00;;;;;;5079751;28;20074;-75
2022/02/26 12:41:31;;;;;;;1.20;0.30;;;9.20;82.90;;;;;;5113728;28;20122;-75
2022/02/26 12:43:58;;;;;;;2.00;0.30;;;9.30;82.70;;;;;;5112841;28;20036;-75
2022/02/26 12:46:27;;;;;;;1.00;0.35;;;9.30;82.40;;;;;;5079338;28;20040;-75
2022/02/26 12:48:57;;;;;;;2.45;0.93;;;9.50;82.30;;;;;;5079713;28;20165;-76
2022/02/26 12:51:24;;;;;;;0.38;0.28;;;9.50;82.10;;;;;;5096481;28;20039;-75
2022/02/26 12:53:51;;;;;;;1.45;0.38;;;9.40;81.70;;;;;;5096040;28;20067;-75
2022/02/26 12:56:36;;;;;;;1.60;0.45;;;9.30;82.20;;;;;;5096220;28;20111;-75